sensor_id;sensor_type;location;lat;lon;timestamp;temperature;humidity
65378;SHT31;51982;51.042;13.806;2023-05-07T05:05:25;13.20;81.11
65378;SHT31;51982;51.042;13.806;2023-05-07T05:07:50;13.13;81.28
65378;SHT31;51982;51.042;13.806;2023-05-07T05:10:16;13.18;81.37
65378;SHT31;51982;51.042;13.806;2023-05-07T05:12:42;13.24;81.25
65378;SHT31;51982;51.042;13.806;2023-05-07T05:15:08;13.30;81.27
65378;SHT31;51982;51.042;13.806;2023-05-07T05:17:33;13.36;80.99
65378;SHT31;51982;51.042;13.806;2023-05-07T05:19:59;13.40;80.94
65378;SHT31;51982;51.042;13.806;2023-05-07T05:22:25;13.44;80.93
65378;SHT31;51982;51.042;13.806;2023-05-07T05:24:50;13.53;80.85
65378;SHT31;51982;51.042;13.806;2023-05-07T05:27:15;13.24;80.97
65378;SHT31;51982;51.042;13.806;2023-05-07T05:29:41;13.18;81.08
65378;SHT31;51982;51.042;13.806;2023-05-07T05:32:06;13.40;80.86
65378;SHT31;51982;51.042;13.806;2023-05-07T05:34:31;13.54;80.57
65378;SHT31;51982;51.042;13.806;2023-05-07T05:36:58;13.55;80.13
65378;SHT31;51982;51.042;13.806;2023-05-07T05:39:24;13.72;79.98
65378;SHT31;51982;51.042;13.806;2023-05-07T05:41:49;13.79;79.50
65378;SHT31;51982;51.042;13.806;2023-05-07T05:44:14;13.82;79.54
65378;SHT31;51982;51.042;13.806;2023-05-07T05:46:40;13.81;79.35
65378;SHT31;51982;51.042;13.806;2023-05-07T05:49:05;13.95;79.05
65378;SHT31;51982;51.042;13.806;2023-05-07T05:51:30;13.98;78.59
65378;SHT31;51982;51.042;13.806;2023-05-07T05:53:55;13.97;78.31
65378;SHT31;51982;51.042;13.806;2023-05-07T05:56:21;13.99;78.87
65378;SHT31;51982;51.042;13.806;2023-05-07T05:58:46;13.98;78.09
65378;SHT31;51982;51.042;13.806;2023-05-07T06:01:11;13.99;77.97
65378;SHT31;51982;51.042;13.806;2023-05-07T06:03:37;14.06;78.04
65378;SHT31;51982;51.042;13.806;2023-05-07T06:06:02;14.04;77.95
65378;SHT31;51982;51.042;13.806;2023-05-07T06:08:30;14.04;78.06
65378;SHT31;51982;51.042;13.806;2023-05-07T06:10:56;14.01;77.91
65378;SHT31;51982;51.042;13.806;2023-05-07T06:13:22;13.92;78.11
65378;SHT31;51982;51.042;13.806;2023-05-07T06:15:48;13.74;78.13
65378;SHT31;51982;51.042;13.806;2023-05-07T06:18:14;13.67;78.43
65378;SHT31;51982;51.042;13.806;2023-05-07T06:20:39;13.71;78.49
65378;SHT31;51982;51.042;13.806;2023-05-07T06:23:04;13.78;78.33
65378;SHT31;51982;51.042;13.806;2023-05-07T06:25:30;13.78;78.01
65378;SHT31;51982;51.042;13.806;2023-05-07T06:27:55;13.82;77.93
65378;SHT31;51982;51.042;13.806;2023-05-07T06:30:20;13.82;77.65
65378;SHT31;51982;51.042;13.806;2023-05-07T06:32:45;13.79;77.73
65378;SHT31;51982;51.042;13.806;2023-05-07T06:35:11;13.77;77.44
65378;SHT31;51982;51.042;13.806;2023-05-07T06:37:36;13.78;77.31
65378;SHT31;51982;51.042;13.806;2023-05-07T06:40:04;13.72;77.40
65378;SHT31;51982;51.042;13.806;2023-05-07T06:42:29;13.69;77.62
65378;SHT31;51982;51.042;13.806;2023-05-07T06:44:55;13.72;77.68
65378;SHT31;51982;51.042;13.806;2023-05-07T06:47:20;13.62;77.96
65378;SHT31;51982;51.042;13.806;2023-05-07T06:49:45;13.65;78.02
65378;SHT31;51982;51.042;13.806;2023-05-07T06:52:10;13.69;78.16
65378;SHT31;51982;51.042;13.806;2023-05-07T06:54:36;13.74;77.93
65378;SHT31;51982;51.042;13.806;2023-05-07T06:57:01;13.71;77.97
65378;SHT31;51982;51.042;13.806;2023-05-07T06:59:26;13.68;78.35
65378;SHT31;51982;51.042;13.806;2023-05-07T07:01:51;13.72;78.38
65378;SHT31;51982;51.042;13.806;2023-05-07T07:04:16;13.67;78.57
65378;SHT31;51982;51.042;13.806;2023-05-07T07:06:42;13.51;78.78
65378;SHT31;51982;51.042;13.806;2023-05-07T07:09:07;13.37;78.66
65378;SHT31;51982;51.042;13.806;2023-05-07T07:11:32;13.41;78.73
65378;SHT31;51982;51.042;13.806;2023-05-07T07:13:57;13.47;78.70
65378;SHT31;51982;51.042;13.806;2023-05-07T07:16:24;13.44;78.64
65378;SHT31;51982;51.042;13.806;2023-05-07T07:18:49;13.43;78.59
65378;SHT31;51982;51.042;13.806;2023-05-07T07:21:14;13.48;78.39
65378;SHT31;51982;51.042;13.806;2023-05-07T07:23:39;13.55;78.16
65378;SHT31;51982;51.042;13.806;2023-05-07T07:26:05;13.59;78.32
65378;SHT31;51982;51.042;13.806;2023-05-07T07:28:31;13.62;78.03
65378;SHT31;51982;51.042;13.806;2023-05-07T07:30:56;13.68;77.96
65378;SHT31;51982;51.042;13.806;2023-05-07T07:33:22;13.67;78.08
65378;SHT31;51982;51.042;13.806;2023-05-07T07:35:47;13.65;77.94
65378;SHT31;51982;51.042;13.806;2023-05-07T07:38:12;13.59;77.49
65378;SHT31;51982;51.042;13.806;2023-05-07T07:40:38;13.61;77.38
65378;SHT31;51982;51.042;13.806;2023-05-07T07:43:04;13.61;77.56
65378;SHT31;51982;51.042;13.806;2023-05-07T07:45:30;13.54;77.65
65378;SHT31;51982;51.042;13.806;2023-05-07T07:47:55;13.44;77.80
65378;SHT31;51982;51.042;13.806;2023-05-07T07:50:20;13.34;78.00
65378;SHT31;51982;51.042;13.806;2023-05-07T07:52:48;13.33;77.94
65378;SHT31;51982;51.042;13.806;2023-05-07T07:55:14;13.27;78.39
65378;SHT31;51982;51.042;13.806;2023-05-07T07:57:43;13.20;78.55
65378;SHT31;51982;51.042;13.806;2023-05-07T08:00:08;13.28;78.58
65378;SHT31;51982;51.042;13.806;2023-05-07T08:02:34;13.26;78.59
65378;SHT31;51982;51.042;13.806;2023-05-07T08:04:59;13.13;78.49
65378;SHT31;51982;51.042;13.806;2023-05-07T08:07:24;13.04;78.65
65378;SHT31;51982;51.042;13.806;2023-05-07T08:09:50;13.06;78.77
65378;SHT31;51982;51.042;13.806;2023-05-07T08:12:15;13.13;78.82
65378;SHT31;51982;51.042;13.806;2023-05-07T08:14:40;13.26;78.44
65378;SHT31;51982;51.042;13.806;2023-05-07T08:17:09;13.34;78.11
65378;SHT31;51982;51.042;13.806;2023-05-07T08:19:35;13.38;77.98
65378;SHT31;51982;51.042;13.806;2023-05-07T08:22:00;13.21;78.05
65378;SHT31;51982;51.042;13.806;2023-05-07T08:24:25;13.38;78.03
65378;SHT31;51982;51.042;13.806;2023-05-07T08:26:51;13.44;78.00
65378;SHT31;51982;51.042;13.806;2023-05-07T08:29:16;13.53;78.05
65378;SHT31;51982;51.042;13.806;2023-05-07T08:31:41;13.58;77.83
65378;SHT31;51982;51.042;13.806;2023-05-07T08:34:07;13.58;77.71
65378;SHT31;51982;51.042;13.806;2023-05-07T08:36:32;13.59;77.43
65378;SHT31;51982;51.042;13.806;2023-05-07T08:38:57;13.53;77.39
65378;SHT31;51982;51.042;13.806;2023-05-07T08:41:23;13.54;77.65
65378;SHT31;51982;51.042;13.806;2023-05-07T08:43:49;13.58;77.41
65378;SHT31;51982;51.042;13.806;2023-05-07T08:46:20;13.65;77.39
65378;SHT31;51982;51.042;13.806;2023-05-07T08:48:49;13.67;77.28
65378;SHT31;51982;51.042;13.806;2023-05-07T08:51:19;13.77;77.25
65378;SHT31;51982;51.042;13.806;2023-05-07T08:53:46;13.79;77.30
65378;SHT31;51982;51.042;13.806;2023-05-07T08:56:14;13.79;77.32
65378;SHT31;51982;51.042;13.806;2023-05-07T08:58:40;13.78;77.34
65378;SHT31;51982;51.042;13.806;2023-05-07T09:01:15;13.79;77.12
65378;SHT31;51982;51.042;13.806;2023-05-07T09:03:46;13.88;77.04
65378;SHT31;51982;51.042;13.806;2023-05-07T09:06:11;13.98;76.60
65378;SHT31;51982;51.042;13.806;2023-05-07T09:08:37;13.97;76.78
65378;SHT31;51982;51.042;13.806;2023-05-07T09:11:02;13.95;76.92
65378;SHT31;51982;51.042;13.806;2023-05-07T09:13:28;13.97;76.89
65378;SHT31;51982;51.042;13.806;2023-05-07T09:15:53;13.78;76.68
65378;SHT31;51982;51.042;13.806;2023-05-07T09:18:18;13.81;77.11
65378;SHT31;51982;51.042;13.806;2023-05-07T09:20:45;13.92;76.97
65378;SHT31;51982;51.042;13.806;2023-05-07T09:23:10;13.91;76.75
65378;SHT31;51982;51.042;13.806;2023-05-07T09:25:37;13.98;76.55
65378;SHT31;51982;51.042;13.806;2023-05-07T09:28:04;14.05;76.63
65378;SHT31;51982;51.042;13.806;2023-05-07T09:30:31;13.95;76.36
65378;SHT31;51982;51.042;13.806;2023-05-07T09:33:01;13.85;76.53
65378;SHT31;51982;51.042;13.806;2023-05-07T09:35:27;13.88;76.30
65378;SHT31;51982;51.042;13.806;2023-05-07T09:37:56;13.94;76.19
65378;SHT31;51982;51.042;13.806;2023-05-07T09:42:47;14.01;75.57
65378;SHT31;51982;51.042;13.806;2023-05-07T09:45:14;14.06;75.30
65378;SHT31;51982;51.042;13.806;2023-05-07T09:47:42;13.91;75.10
65378;SHT31;51982;51.042;13.806;2023-05-07T09:50:10;13.99;75.38
65378;SHT31;51982;51.042;13.806;2023-05-07T09:52:36;13.92;75.20
65378;SHT31;51982;51.042;13.806;2023-05-07T09:55:02;13.86;75.49
65378;SHT31;51982;51.042;13.806;2023-05-07T09:57:28;13.82;75.61
65378;SHT31;51982;51.042;13.806;2023-05-07T09:59:56;13.83;76.18
65378;SHT31;51982;51.042;13.806;2023-05-07T10:02:23;13.95;76.22
65378;SHT31;51982;51.042;13.806;2023-05-07T10:04:50;13.98;76.45
65378;SHT31;51982;51.042;13.806;2023-05-07T10:07:16;14.08;76.23
65378;SHT31;51982;51.042;13.806;2023-05-07T10:09:42;14.19;75.87
65378;SHT31;51982;51.042;13.806;2023-05-07T10:12:09;14.22;75.89
65378;SHT31;51982;51.042;13.806;2023-05-07T10:14:34;14.25;75.60
65378;SHT31;51982;51.042;13.806;2023-05-07T10:17:02;14.23;75.60
65378;SHT31;51982;51.042;13.806;2023-05-07T10:19:28;14.30;75.66
65378;SHT31;51982;51.042;13.806;2023-05-07T10:21:55;14.32;75.28
65378;SHT31;51982;51.042;13.806;2023-05-07T10:24:34;14.39;75.25
65378;SHT31;51982;51.042;13.806;2023-05-07T10:27:04;14.32;75.07
65378;SHT31;51982;51.042;13.806;2023-05-07T10:29:36;14.18;74.84
65378;SHT31;51982;51.042;13.806;2023-05-07T10:34:37;14.40;74.85
65378;SHT31;51982;51.042;13.806;2023-05-07T10:37:04;14.49;74.58
65378;SHT31;51982;51.042;13.806;2023-05-07T10:39:29;14.43;74.78
65378;SHT31;51982;51.042;13.806;2023-05-07T10:41:55;14.37;74.92
65378;SHT31;51982;51.042;13.806;2023-05-07T10:44:27;14.36;74.76
65378;SHT31;51982;51.042;13.806;2023-05-07T10:47:12;14.46;74.51
65378;SHT31;51982;51.042;13.806;2023-05-07T10:52:12;14.55;74.03
65378;SHT31;51982;51.042;13.806;2023-05-07T10:54:41;14.52;73.86
65378;SHT31;51982;51.042;13.806;2023-05-07T10:57:33;14.60;73.87
65378;SHT31;51982;51.042;13.806;2023-05-07T11:05:28;14.91;73.32
65378;SHT31;51982;51.042;13.806;2023-05-07T11:07:55;14.95;73.20
65378;SHT31;51982;51.042;13.806;2023-05-07T11:10:21;15.05;73.25
65378;SHT31;51982;51.042;13.806;2023-05-07T11:12:47;15.04;73.10
65378;SHT31;51982;51.042;13.806;2023-05-07T11:15:13;15.01;72.99
65378;SHT31;51982;51.042;13.806;2023-05-07T11:17:57;14.80;72.97
65378;SHT31;51982;51.042;13.806;2023-05-07T11:20:45;14.80;72.80
65378;SHT31;51982;51.042;13.806;2023-05-07T11:26:08;14.94;73.13
65378;SHT31;51982;51.042;13.806;2023-05-07T11:28:41;15.00;73.22
65378;SHT31;51982;51.042;13.806;2023-05-07T11:31:07;14.90;73.22
65378;SHT31;51982;51.042;13.806;2023-05-07T11:33:33;14.97;73.20
65378;SHT31;51982;51.042;13.806;2023-05-07T11:36:03;14.61;73.80
65378;SHT31;51982;51.042;13.806;2023-05-07T11:38:36;14.81;73.75
65378;SHT31;51982;51.042;13.806;2023-05-07T11:41:02;14.98;73.65
65378;SHT31;51982;51.042;13.806;2023-05-07T11:43:29;15.01;73.47
65378;SHT31;51982;51.042;13.806;2023-05-07T11:46:04;14.98;73.41
65378;SHT31;51982;51.042;13.806;2023-05-07T11:48:30;15.01;73.52
65378;SHT31;51982;51.042;13.806;2023-05-07T11:51:01;15.10;73.43
65378;SHT31;51982;51.042;13.806;2023-05-07T11:53:28;15.17;73.38
65378;SHT31;51982;51.042;13.806;2023-05-07T11:55:55;15.25;73.25
65378;SHT31;51982;51.042;13.806;2023-05-07T11:58:22;15.32;73.18
65378;SHT31;51982;51.042;13.806;2023-05-07T12:00:54;15.45;72.98
65378;SHT31;51982;51.042;13.806;2023-05-07T12:03:20;15.42;72.73
65378;SHT31;51982;51.042;13.806;2023-05-07T12:05:46;15.24;73.20
65378;SHT31;51982;51.042;13.806;2023-05-07T12:08:18;15.31;73.19
65378;SHT31;51982;51.042;13.806;2023-05-07T12:10:44;15.38;73.16
65378;SHT31;51982;51.042;13.806;2023-05-07T12:13:20;15.38;73.11
65378;SHT31;51982;51.042;13.806;2023-05-07T12:15:46;15.48;73.05
65378;SHT31;51982;51.042;13.806;2023-05-07T12:18:12;15.44;72.83
65378;SHT31;51982;51.042;13.806;2023-05-07T12:20:38;15.52;73.01
65378;SHT31;51982;51.042;13.806;2023-05-07T12:23:03;15.42;72.88
65378;SHT31;51982;51.042;13.806;2023-05-07T12:25:34;15.44;72.88
65378;SHT31;51982;51.042;13.806;2023-05-07T12:28:01;15.52;72.85
65378;SHT31;51982;51.042;13.806;2023-05-07T12:30:27;15.44;72.59
65378;SHT31;51982;51.042;13.806;2023-05-07T12:32:53;15.46;72.66
65378;SHT31;51982;51.042;13.806;2023-05-07T12:35:26;15.36;72.54
65378;SHT31;51982;51.042;13.806;2023-05-07T12:37:59;15.28;72.72
65378;SHT31;51982;51.042;13.806;2023-05-07T12:40:35;15.44;72.66
65378;SHT31;51982;51.042;13.806;2023-05-07T12:43:00;15.56;72.60
65378;SHT31;51982;51.042;13.806;2023-05-07T12:45:26;15.48;72.73
65378;SHT31;51982;51.042;13.806;2023-05-07T12:47:51;15.63;72.62
65378;SHT31;51982;51.042;13.806;2023-05-07T12:50:16;15.65;72.37
65378;SHT31;51982;51.042;13.806;2023-05-07T12:52:49;15.69;72.45
65378;SHT31;51982;51.042;13.806;2023-05-07T12:55:15;15.82;72.32
65378;SHT31;51982;51.042;13.806;2023-05-07T12:57:48;15.83;72.39
65378;SHT31;51982;51.042;13.806;2023-05-07T13:00:14;15.79;72.01
65378;SHT31;51982;51.042;13.806;2023-05-07T13:02:41;15.82;72.02
65378;SHT31;51982;51.042;13.806;2023-05-07T13:05:07;15.83;72.11
65378;SHT31;51982;51.042;13.806;2023-05-07T13:07:32;15.89;71.91
65378;SHT31;51982;51.042;13.806;2023-05-07T13:09:58;15.93;71.88
65378;SHT31;51982;51.042;13.806;2023-05-07T13:12:23;15.90;71.63
65378;SHT31;51982;51.042;13.806;2023-05-07T13:14:48;15.75;71.74
65378;SHT31;51982;51.042;13.806;2023-05-07T13:17:13;15.85;71.76
65378;SHT31;51982;51.042;13.806;2023-05-07T13:19:38;15.97;71.93
65378;SHT31;51982;51.042;13.806;2023-05-07T13:22:04;15.85;71.89
65378;SHT31;51982;51.042;13.806;2023-05-07T13:24:29;15.95;71.79
65378;SHT31;51982;51.042;13.806;2023-05-07T13:26:54;15.81;71.72
65378;SHT31;51982;51.042;13.806;2023-05-07T13:29:20;15.81;71.25
65378;SHT31;51982;51.042;13.806;2023-05-07T13:31:50;15.86;71.14
65378;SHT31;51982;51.042;13.806;2023-05-07T13:34:15;15.96;71.22
65378;SHT31;51982;51.042;13.806;2023-05-07T13:36:40;15.90;71.29
65378;SHT31;51982;51.042;13.806;2023-05-07T13:39:06;15.79;71.18
65378;SHT31;51982;51.042;13.806;2023-05-07T13:41:32;15.72;71.49
65378;SHT31;51982;51.042;13.806;2023-05-07T13:43:57;15.61;71.76
65378;SHT31;51982;51.042;13.806;2023-05-07T13:46:22;15.69;71.41
65378;SHT31;51982;51.042;13.806;2023-05-07T13:48:47;15.90;71.52
65378;SHT31;51982;51.042;13.806;2023-05-07T13:51:13;16.09;71.51
65378;SHT31;51982;51.042;13.806;2023-05-07T13:53:38;16.20;71.24
65378;SHT31;51982;51.042;13.806;2023-05-07T13:56:04;16.21;70.54
65378;SHT31;51982;51.042;13.806;2023-05-07T13:58:30;16.21;70.46
65378;SHT31;51982;51.042;13.806;2023-05-07T14:00:55;16.12;70.53
65378;SHT31;51982;51.042;13.806;2023-05-07T14:03:20;16.09;70.55
65378;SHT31;51982;51.042;13.806;2023-05-07T14:05:46;16.05;70.21
65378;SHT31;51982;51.042;13.806;2023-05-07T14:08:11;16.00;70.34
65378;SHT31;51982;51.042;13.806;2023-05-07T14:10:38;16.00;70.44
65378;SHT31;51982;51.042;13.806;2023-05-07T14:13:04;16.02;70.51
65378;SHT31;51982;51.042;13.806;2023-05-07T14:15:29;15.90;70.76
65378;SHT31;51982;51.042;13.806;2023-05-07T14:17:54;15.75;70.77
65378;SHT31;51982;51.042;13.806;2023-05-07T14:20:20;15.69;71.06
65378;SHT31;51982;51.042;13.806;2023-05-07T14:22:45;15.67;70.86
65378;SHT31;51982;51.042;13.806;2023-05-07T14:25:10;15.76;70.94
65378;SHT31;51982;51.042;13.806;2023-05-07T14:27:36;15.76;70.89
65378;SHT31;51982;51.042;13.806;2023-05-07T14:30:01;15.61;71.18
65378;SHT31;51982;51.042;13.806;2023-05-07T14:32:26;15.55;71.35
65378;SHT31;51982;51.042;13.806;2023-05-07T14:34:52;15.62;71.14
65378;SHT31;51982;51.042;13.806;2023-05-07T14:37:17;15.48;71.15
65378;SHT31;51982;51.042;13.806;2023-05-07T14:39:44;15.70;71.19
65378;SHT31;51982;51.042;13.806;2023-05-07T14:42:10;15.70;71.35
65378;SHT31;51982;51.042;13.806;2023-05-07T14:44:36;15.78;71.03
65378;SHT31;51982;51.042;13.806;2023-05-07T14:47:01;15.79;71.14
65378;SHT31;51982;51.042;13.806;2023-05-07T14:49:27;15.67;71.55
65378;SHT31;51982;51.042;13.806;2023-05-07T14:51:52;15.78;71.43
65378;SHT31;51982;51.042;13.806;2023-05-07T14:54:17;15.79;71.54
65378;SHT31;51982;51.042;13.806;2023-05-07T14:56:42;15.70;71.50
65378;SHT31;51982;51.042;13.806;2023-05-07T14:59:08;15.66;71.44
65378;SHT31;51982;51.042;13.806;2023-05-07T15:01:34;15.66;71.62
65378;SHT31;51982;51.042;13.806;2023-05-07T15:04:00;15.54;71.71
65378;SHT31;51982;51.042;13.806;2023-05-07T15:06:25;15.65;71.66
65378;SHT31;51982;51.042;13.806;2023-05-07T15:08:52;15.52;71.85
65378;SHT31;51982;51.042;13.806;2023-05-07T15:11:17;15.38;71.70
65378;SHT31;51982;51.042;13.806;2023-05-07T15:13:42;15.38;72.05
65378;SHT31;51982;51.042;13.806;2023-05-07T15:16:07;15.51;72.02
65378;SHT31;51982;51.042;13.806;2023-05-07T15:18:33;15.51;72.03
65378;SHT31;51982;51.042;13.806;2023-05-07T15:20:58;15.48;72.10
65378;SHT31;51982;51.042;13.806;2023-05-07T15:23:23;15.38;72.14
65378;SHT31;51982;51.042;13.806;2023-05-07T15:25:48;15.34;72.17
65378;SHT31;51982;51.042;13.806;2023-05-07T15:28:14;15.27;72.14
65378;SHT31;51982;51.042;13.806;2023-05-07T15:30:39;15.21;71.96
65378;SHT31;51982;51.042;13.806;2023-05-07T15:33:04;15.12;72.35
65378;SHT31;51982;51.042;13.806;2023-05-07T15:35:30;15.15;72.45
65378;SHT31;51982;51.042;13.806;2023-05-07T15:37:55;15.18;72.08
65378;SHT31;51982;51.042;13.806;2023-05-07T15:40:20;15.18;72.08
65378;SHT31;51982;51.042;13.806;2023-05-07T15:42:46;15.14;72.14
65378;SHT31;51982;51.042;13.806;2023-05-07T15:45:11;14.90;72.65
65378;SHT31;51982;51.042;13.806;2023-05-07T15:47:37;14.88;72.98
65378;SHT31;51982;51.042;13.806;2023-05-07T15:50:03;14.98;72.82
65378;SHT31;51982;51.042;13.806;2023-05-07T15:52:28;14.91;72.89
65378;SHT31;51982;51.042;13.806;2023-05-07T15:54:54;15.03;72.67
65378;SHT31;51982;51.042;13.806;2023-05-07T15:57:23;14.88;72.69
65378;SHT31;51982;51.042;13.806;2023-05-07T15:59:49;14.76;72.98
65378;SHT31;51982;51.042;13.806;2023-05-07T16:02:14;14.70;73.18
65378;SHT31;51982;51.042;13.806;2023-05-07T16:04:40;14.79;73.06
65378;SHT31;51982;51.042;13.806;2023-05-07T16:07:05;14.90;72.99
65378;SHT31;51982;51.042;13.806;2023-05-07T16:09:31;14.79;73.18
65378;SHT31;51982;51.042;13.806;2023-05-07T16:11:57;14.79;73.31
65378;SHT31;51982;51.042;13.806;2023-05-07T16:14:22;14.71;73.24
65378;SHT31;51982;51.042;13.806;2023-05-07T16:16:48;14.64;73.39
65378;SHT31;51982;51.042;13.806;2023-05-07T16:19:13;14.74;73.36
65378;SHT31;51982;51.042;13.806;2023-05-07T16:21:39;14.80;73.20
65378;SHT31;51982;51.042;13.806;2023-05-07T16:24:05;14.77;73.21
65378;SHT31;51982;51.042;13.806;2023-05-07T16:26:30;14.61;73.59
65378;SHT31;51982;51.042;13.806;2023-05-07T16:28:55;14.61;73.58
65378;SHT31;51982;51.042;13.806;2023-05-07T16:31:23;14.60;73.46
65378;SHT31;51982;51.042;13.806;2023-05-07T16:33:49;14.67;73.26
65378;SHT31;51982;51.042;13.806;2023-05-07T16:36:15;14.49;73.44
65378;SHT31;51982;51.042;13.806;2023-05-07T16:38:40;14.52;73.67
65378;SHT31;51982;51.042;13.806;2023-05-07T16:41:05;14.44;73.56
65378;SHT31;51982;51.042;13.806;2023-05-07T16:43:31;14.16;73.34
65378;SHT31;51982;51.042;13.806;2023-05-07T16:45:56;14.32;73.31
65378;SHT31;51982;51.042;13.806;2023-05-07T16:48:21;14.22;73.47
65378;SHT31;51982;51.042;13.806;2023-05-07T16:50:47;14.25;73.38
65378;SHT31;51982;51.042;13.806;2023-05-07T16:53:12;14.36;73.22
65378;SHT31;51982;51.042;13.806;2023-05-07T16:55:37;14.32;73.13
65378;SHT31;51982;51.042;13.806;2023-05-07T16:58:07;14.25;73.03
65378;SHT31;51982;51.042;13.806;2023-05-07T17:00:33;14.28;73.10
65378;SHT31;51982;51.042;13.806;2023-05-07T17:02:59;14.26;73.06
65378;SHT31;51982;51.042;13.806;2023-05-07T17:05:24;14.18;73.27
65378;SHT31;51982;51.042;13.806;2023-05-07T17:07:49;14.20;73.14
65378;SHT31;51982;51.042;13.806;2023-05-07T17:10:15;14.19;73.39
65378;SHT31;51982;51.042;13.806;2023-05-07T17:12:41;14.22;73.33
65378;SHT31;51982;51.042;13.806;2023-05-07T17:15:06;13.99;73.69
65378;SHT31;51982;51.042;13.806;2023-05-07T17:17:32;14.02;73.72
65378;SHT31;51982;51.042;13.806;2023-05-07T17:19:57;13.94;73.88
65378;SHT31;51982;51.042;13.806;2023-05-07T17:22:24;13.97;73.79
65378;SHT31;51982;51.042;13.806;2023-05-07T17:24:49;13.82;74.07
65378;SHT31;51982;51.042;13.806;2023-05-07T17:27:14;13.86;73.69
65378;SHT31;51982;51.042;13.806;2023-05-07T17:29:40;13.85;73.44
65378;SHT31;51982;51.042;13.806;2023-05-07T17:32:05;13.78;73.33
65378;SHT31;51982;51.042;13.806;2023-05-07T17:34:30;13.78;73.34
65378;SHT31;51982;51.042;13.806;2023-05-07T17:36:56;13.67;73.51
65378;SHT31;51982;51.042;13.806;2023-05-07T17:39:22;13.53;73.59
65378;SHT31;51982;51.042;13.806;2023-05-07T17:41:48;13.64;73.53
65378;SHT31;51982;51.042;13.806;2023-05-07T17:44:13;13.71;73.38
65378;SHT31;51982;51.042;13.806;2023-05-07T17:46:38;13.72;73.22
65378;SHT31;51982;51.042;13.806;2023-05-07T17:49:03;13.62;73.15
65378;SHT31;51982;51.042;13.806;2023-05-07T17:51:29;13.59;73.27
65378;SHT31;51982;51.042;13.806;2023-05-07T17:53:54;13.51;73.42
65378;SHT31;51982;51.042;13.806;2023-05-07T17:56:20;13.55;73.23
65378;SHT31;51982;51.042;13.806;2023-05-07T17:58:46;13.53;73.15
65378;SHT31;51982;51.042;13.806;2023-05-07T18:01:12;13.41;73.28
65378;SHT31;51982;51.042;13.806;2023-05-07T18:03:40;13.37;73.08
65378;SHT31;51982;51.042;13.806;2023-05-07T18:06:05;13.47;73.15
65378;SHT31;51982;51.042;13.806;2023-05-07T18:08:30;13.44;73.11
65378;SHT31;51982;51.042;13.806;2023-05-07T18:10:56;13.26;73.30
65378;SHT31;51982;51.042;13.806;2023-05-07T18:13:21;13.40;73.18
65378;SHT31;51982;51.042;13.806;2023-05-07T18:15:46;13.50;73.14
65378;SHT31;51982;51.042;13.806;2023-05-07T18:18:11;13.47;73.09
65378;SHT31;51982;51.042;13.806;2023-05-07T18:20:37;13.38;73.21
65378;SHT31;51982;51.042;13.806;2023-05-07T18:23:02;13.40;73.10
65378;SHT31;51982;51.042;13.806;2023-05-07T18:25:28;13.44;73.09
65378;SHT31;51982;51.042;13.806;2023-05-07T18:27:53;13.43;73.16
65378;SHT31;51982;51.042;13.806;2023-05-07T18:30:19;13.46;73.03
65378;SHT31;51982;51.042;13.806;2023-05-07T18:32:44;13.47;73.06
65378;SHT31;51982;51.042;13.806;2023-05-07T18:35:09;13.48;73.05
65378;SHT31;51982;51.042;13.806;2023-05-07T18:37:34;13.50;73.07
65378;SHT31;51982;51.042;13.806;2023-05-07T18:40:00;13.50;73.33
65378;SHT31;51982;51.042;13.806;2023-05-07T18:42:28;13.48;73.08
65378;SHT31;51982;51.042;13.806;2023-05-07T18:44:53;13.46;73.33
65378;SHT31;51982;51.042;13.806;2023-05-07T18:47:19;13.48;73.29
65378;SHT31;51982;51.042;13.806;2023-05-07T18:49:44;13.47;73.10
65378;SHT31;51982;51.042;13.806;2023-05-07T18:52:09;13.46;73.13
65378;SHT31;51982;51.042;13.806;2023-05-07T18:54:34;13.46;73.11
65378;SHT31;51982;51.042;13.806;2023-05-07T18:57:00;13.41;73.33
65378;SHT31;51982;51.042;13.806;2023-05-07T18:59:25;13.37;73.37
65378;SHT31;51982;51.042;13.806;2023-05-07T19:01:50;13.31;73.47
65378;SHT31;51982;51.042;13.806;2023-05-07T19:04:16;13.28;73.33
65378;SHT31;51982;51.042;13.806;2023-05-07T19:06:42;13.31;73.50
65378;SHT31;51982;51.042;13.806;2023-05-07T19:09:07;13.27;73.68
65378;SHT31;51982;51.042;13.806;2023-05-07T19:11:32;13.31;73.53
65378;SHT31;51982;51.042;13.806;2023-05-07T19:13:58;13.31;73.38
65378;SHT31;51982;51.042;13.806;2023-05-07T19:16:23;13.27;73.35
65378;SHT31;51982;51.042;13.806;2023-05-07T19:18:48;13.24;73.41
65378;SHT31;51982;51.042;13.806;2023-05-07T19:21:13;13.27;73.40
65378;SHT31;51982;51.042;13.806;2023-05-07T19:23:39;13.23;73.54
65378;SHT31;51982;51.042;13.806;2023-05-07T19:26:08;13.20;73.71
65378;SHT31;51982;51.042;13.806;2023-05-07T19:28:34;13.20;73.54
65378;SHT31;51982;51.042;13.806;2023-05-07T19:30:59;13.21;73.61
65378;SHT31;51982;51.042;13.806;2023-05-07T19:33:25;13.17;73.66
65378;SHT31;51982;51.042;13.806;2023-05-07T19:35:50;13.14;73.83
65378;SHT31;51982;51.042;13.806;2023-05-07T19:38:18;13.14;73.69
65378;SHT31;51982;51.042;13.806;2023-05-07T19:40:43;13.16;73.76
65378;SHT31;51982;51.042;13.806;2023-05-07T19:43:08;13.10;73.63
65378;SHT31;51982;51.042;13.806;2023-05-07T19:45:34;13.07;73.68
65378;SHT31;51982;51.042;13.806;2023-05-07T19:47:59;13.08;73.75
65378;SHT31;51982;51.042;13.806;2023-05-07T19:50:24;13.06;73.84
65378;SHT31;51982;51.042;13.806;2023-05-07T19:52:49;12.99;73.71
65378;SHT31;51982;51.042;13.806;2023-05-07T19:55:15;12.99;73.82
65378;SHT31;51982;51.042;13.806;2023-05-07T19:57:40;13.00;73.77
65378;SHT31;51982;51.042;13.806;2023-05-07T20:00:06;12.97;73.58
65378;SHT31;51982;51.042;13.806;2023-05-07T20:02:31;12.96;73.66
65378;SHT31;51982;51.042;13.806;2023-05-07T20:04:57;12.99;73.74
65378;SHT31;51982;51.042;13.806;2023-05-07T20:07:22;12.95;73.87
65378;SHT31;51982;51.042;13.806;2023-05-07T20:09:47;12.90;73.89
65378;SHT31;51982;51.042;13.806;2023-05-07T20:12:12;12.86;73.89
65378;SHT31;51982;51.042;13.806;2023-05-07T20:14:38;12.86;73.86
65378;SHT31;51982;51.042;13.806;2023-05-07T20:17:03;12.86;73.73
65378;SHT31;51982;51.042;13.806;2023-05-07T20:19:28;12.83;73.76
65378;SHT31;51982;51.042;13.806;2023-05-07T20:21:53;12.85;73.62
65378;SHT31;51982;51.042;13.806;2023-05-07T20:24:18;12.83;73.70
65378;SHT31;51982;51.042;13.806;2023-05-07T20:26:45;12.77;73.68
65378;SHT31;51982;51.042;13.806;2023-05-07T20:29:10;12.80;73.64